createdAt,value
2023-05-06T00:01:23.673Z,47.90
2023-05-06T00:03:50.259Z,48.90
2023-05-06T00:06:16.797Z,48.97
2023-05-06T00:08:43.262Z,48.55
2023-05-06T00:11:09.645Z,48.86
2023-05-06T00:13:36.035Z,49.17
2023-05-06T00:16:02.441Z,48.27
2023-05-06T00:18:28.862Z,48.99
2023-05-06T00:20:55.366Z,50.36
2023-05-06T00:23:21.764Z,50.39
2023-05-06T00:25:48.133Z,51.70
2023-05-06T00:28:14.538Z,51.41
2023-05-06T00:30:40.911Z,51.67
2023-05-06T00:33:07.569Z,51.28
2023-05-06T00:35:34.014Z,51.18
2023-05-06T00:38:00.449Z,50.95
2023-05-06T00:40:26.935Z,51.38
2023-05-06T00:42:53.384Z,50.24
2023-05-06T00:45:19.778Z,49.89
2023-05-06T00:47:46.296Z,48.95
2023-05-06T00:50:12.703Z,49.86
2023-05-06T00:52:39.081Z,50.52
2023-05-06T00:55:06.152Z,50.38
2023-05-06T00:57:32.583Z,49.93
2023-05-06T00:59:59.008Z,50.18
2023-05-06T01:02:33.211Z,49.55
2023-05-06T01:05:02.827Z,49.98
2023-05-06T01:07:29.303Z,49.99
2023-05-06T01:09:55.779Z,50.62
2023-05-06T01:12:22.236Z,51.13
2023-05-06T01:14:48.731Z,50.34
2023-05-06T01:17:17.466Z,48.89
2023-05-06T01:19:43.906Z,49.61
2023-05-06T01:22:13.353Z,49.20
2023-05-06T01:24:39.758Z,49.12
2023-05-06T01:27:06.392Z,50.03
2023-05-06T01:29:32.787Z,49.28
2023-05-06T01:32:01.507Z,49.62
2023-05-06T01:34:27.949Z,49.26
2023-05-06T01:36:54.383Z,49.34
2023-05-06T01:39:20.775Z,48.93
2023-05-06T01:41:47.330Z,48.22
2023-05-06T01:44:13.745Z,47.96
2023-05-06T01:46:45.612Z,47.93
2023-05-06T01:49:14.249Z,47.56
2023-05-06T01:51:40.623Z,48.35
2023-05-06T01:54:13.041Z,48.46
2023-05-06T01:56:39.508Z,48.89
2023-05-06T01:59:05.889Z,48.99
2023-05-06T02:01:32.380Z,49.44
2023-05-06T02:03:58.921Z,48.86
2023-05-06T02:06:25.529Z,48.42
2023-05-06T02:08:51.947Z,47.91
2023-05-06T02:11:18.485Z,47.58
2023-05-06T02:13:44.852Z,47.69
2023-05-06T02:16:14.435Z,48.04
2023-05-06T02:18:40.875Z,48.74
2023-05-06T02:21:07.335Z,47.98
2023-05-06T02:23:33.721Z,48.27
2023-05-06T02:26:00.301Z,47.77
2023-05-06T02:28:28.254Z,48.30
2023-05-06T02:30:54.697Z,48.43
2023-05-06T02:33:21.077Z,48.45
2023-05-06T02:35:47.486Z,48.70
2023-05-06T02:38:14.019Z,49.19
2023-05-06T02:40:40.440Z,48.93
2023-05-06T02:43:06.812Z,49.60
2023-05-06T02:45:33.363Z,50.11
2023-05-06T02:47:59.797Z,50.04
2023-05-06T02:50:28.832Z,50.29
2023-05-06T02:52:55.314Z,49.75
2023-05-06T02:55:21.728Z,50.19
2023-05-06T02:57:48.377Z,50.33
2023-05-06T03:00:14.762Z,50.27
2023-05-06T03:02:43.530Z,50.49
2023-05-06T03:05:10.153Z,50.51
2023-05-06T03:07:36.732Z,50.36
2023-05-06T03:10:03.283Z,49.96
2023-05-06T03:12:29.672Z,50.52
2023-05-06T03:15:00.857Z,50.41
2023-05-06T03:17:41.348Z,50.51
2023-05-06T03:20:07.761Z,50.97
2023-05-06T03:22:34.354Z,51.15
2023-05-06T03:25:00.747Z,51.18
2023-05-06T03:27:27.416Z,51.54
2023-05-06T03:29:53.892Z,52.28
2023-05-06T03:32:26.397Z,52.36
2023-05-06T03:34:52.860Z,52.50
2023-05-06T03:37:19.368Z,52.58
2023-05-06T03:39:45.768Z,53.31
2023-05-06T03:42:12.193Z,53.18
2023-05-06T03:44:38.616Z,53.52
2023-05-06T03:47:05.020Z,53.29
2023-05-06T03:49:31.484Z,54.36
2023-05-06T03:51:57.906Z,53.88
2023-05-06T03:54:27.047Z,54.20
2023-05-06T03:56:53.528Z,53.92
2023-05-06T03:59:19.918Z,54.26
2023-05-06T04:01:46.453Z,54.55
2023-05-06T04:04:12.905Z,54.46
2023-05-06T04:06:40.309Z,54.31
2023-05-06T04:09:06.789Z,54.47
2023-05-06T04:11:33.226Z,53.86
2023-05-06T04:13:59.736Z,53.51
2023-05-06T04:16:26.187Z,54.09
2023-05-06T04:18:52.739Z,53.72
2023-05-06T04:21:19.175Z,54.17
2023-05-06T04:23:45.716Z,54.77
2023-05-06T04:26:12.063Z,56.00
2023-05-06T04:28:44.269Z,55.65
2023-05-06T04:31:10.835Z,55.63
2023-05-06T04:33:37.372Z,55.39
2023-05-06T04:36:03.838Z,55.22
2023-05-06T04:38:30.289Z,55.46
2023-05-06T04:40:56.911Z,55.04
2023-05-06T04:43:23.397Z,55.40
2023-05-06T04:45:49.943Z,54.44
2023-05-06T04:48:16.673Z,54.76
2023-05-06T04:50:43.055Z,53.65
2023-05-06T04:53:11.998Z,53.83
2023-05-06T04:55:38.534Z,53.12
2023-05-06T04:58:04.950Z,53.39
2023-05-06T05:00:31.339Z,53.44
2023-05-06T05:02:57.956Z,53.47
2023-05-06T05:05:24.414Z,53.50
2023-05-06T05:07:50.939Z,53.41
2023-05-06T05:10:17.311Z,54.03
2023-05-06T05:12:43.772Z,53.64
2023-05-06T05:15:10.356Z,54.41
2023-05-06T05:17:37.009Z,54.15
2023-05-06T05:20:03.418Z,54.40
2023-05-06T05:22:29.816Z,54.01
2023-05-06T05:24:56.237Z,53.99
2023-05-06T05:27:22.686Z,53.24
2023-05-06T05:29:49.228Z,54.16
2023-05-06T05:32:15.619Z,53.42
2023-05-06T05:34:42.050Z,53.37
2023-05-06T05:37:10.729Z,52.68
2023-05-06T05:39:37.226Z,52.39
2023-05-06T05:42:03.963Z,52.54
2023-05-06T05:44:30.333Z,52.19
2023-05-06T05:46:57.965Z,51.16
2023-05-06T05:49:24.319Z,51.22
2023-05-06T05:51:50.902Z,51.74
2023-05-06T05:54:17.289Z,50.98
2023-05-06T05:56:43.694Z,51.29
2023-05-06T05:59:10.198Z,51.32
2023-05-06T06:01:36.623Z,51.03
2023-05-06T06:04:03.094Z,51.10
2023-05-06T06:06:29.604Z,50.61
2023-05-06T06:08:56.164Z,50.57
2023-05-06T06:11:22.696Z,50.54
2023-05-06T06:13:49.544Z,51.49
2023-05-06T06:16:16.227Z,51.09
2023-05-06T06:18:42.646Z,51.24
2023-05-06T06:21:09.029Z,51.35
2023-05-06T06:23:35.476Z,50.87
2023-05-06T06:26:01.908Z,50.63
2023-05-06T06:28:28.569Z,50.83
2023-05-06T06:30:55.016Z,50.30
2023-05-06T06:33:21.558Z,49.46
2023-05-06T06:35:47.981Z,49.21
2023-05-06T06:38:14.420Z,49.17
2023-05-06T06:40:40.890Z,48.97
2023-05-06T06:43:07.301Z,48.76
2023-05-06T06:45:33.816Z,50.30
2023-05-06T06:48:00.314Z,50.12
2023-05-06T06:50:26.829Z,49.68
2023-05-06T06:52:53.258Z,49.05
2023-05-06T06:55:19.792Z,49.58
2023-05-06T06:57:46.158Z,48.93
2023-05-06T07:00:12.573Z,48.87
2023-05-06T07:02:39.013Z,48.48
2023-05-06T07:05:05.876Z,48.54
2023-05-06T07:07:35.310Z,48.34
2023-05-06T07:10:01.707Z,48.98
2023-05-06T07:12:28.167Z,48.84
2023-05-06T07:14:54.608Z,48.65
2023-05-06T07:17:23.675Z,48.43
2023-05-06T07:19:50.104Z,48.84
2023-05-06T07:22:16.544Z,47.96
2023-05-06T07:24:42.933Z,48.03
2023-05-06T07:27:09.773Z,47.47
2023-05-06T07:29:36.230Z,47.05
2023-05-06T07:32:02.637Z,46.97
2023-05-06T07:34:29.074Z,47.08
2023-05-06T07:36:55.592Z,47.12
2023-05-06T07:39:22.079Z,47.64
2023-05-06T07:41:48.685Z,47.60
2023-05-06T07:44:15.228Z,47.01
2023-05-06T07:46:41.966Z,47.06
2023-05-06T07:49:10.113Z,47.29
2023-05-06T07:51:36.531Z,46.51
2023-05-06T07:54:03.219Z,46.15
2023-05-06T07:56:29.802Z,46.07
2023-05-06T07:58:56.395Z,46.07
2023-05-06T08:01:23.009Z,46.42
2023-05-06T08:03:49.552Z,46.04
2023-05-06T08:06:16.049Z,46.00
2023-05-06T08:08:42.491Z,46.92
2023-05-06T08:11:08.972Z,46.85
2023-05-06T08:13:35.405Z,46.05
2023-05-06T08:16:03.466Z,46.69
2023-05-06T08:18:30.068Z,46.09
2023-05-06T08:20:56.584Z,45.85
2023-05-06T08:23:23.135Z,45.35
2023-05-06T08:25:49.642Z,45.12
2023-05-06T08:28:16.065Z,45.13
2023-05-06T08:30:42.614Z,45.04
2023-05-06T08:33:09.104Z,44.83
2023-05-06T08:35:35.613Z,44.55
2023-05-06T08:38:02.084Z,43.31
2023-05-06T08:40:28.456Z,43.30
2023-05-06T08:42:56.080Z,43.43
2023-05-06T08:45:22.503Z,42.79
2023-05-06T08:47:51.351Z,42.67
2023-05-06T08:50:17.770Z,42.30
2023-05-06T08:52:44.283Z,42.03
2023-05-06T08:55:10.885Z,41.74
2023-05-06T08:57:37.461Z,41.64
2023-05-06T09:00:06.061Z,41.68
2023-05-06T09:02:32.682Z,41.71
2023-05-06T09:04:59.231Z,42.42
2023-05-06T09:07:25.773Z,41.12
2023-05-06T09:09:54.521Z,41.29
2023-05-06T09:12:20.914Z,40.67
2023-05-06T09:14:47.692Z,40.50
2023-05-06T09:17:14.260Z,40.67
2023-05-06T09:19:40.637Z,40.69
2023-05-06T09:22:07.074Z,39.77
2023-05-06T09:24:33.490Z,39.59
2023-05-06T09:26:59.887Z,39.11
2023-05-06T09:29:26.464Z,38.93
2023-05-06T09:31:52.967Z,38.81
2023-05-06T09:34:19.391Z,38.64
2023-05-06T09:36:45.901Z,39.02
2023-05-06T09:39:12.290Z,39.06
2023-05-06T09:41:38.799Z,38.39
2023-05-06T09:44:05.244Z,38.54
2023-05-06T09:46:31.735Z,38.36
2023-05-06T09:48:58.333Z,39.32
2023-05-06T09:51:24.969Z,38.34
2023-05-06T09:53:51.455Z,38.48
2023-05-06T09:56:17.865Z,37.94
2023-05-06T09:58:44.508Z,38.04
2023-05-06T10:01:12.080Z,38.17
2023-05-06T10:03:39.807Z,38.55
2023-05-06T10:06:06.409Z,38.00
2023-05-06T10:08:32.812Z,38.14
2023-05-06T10:10:59.270Z,37.92
2023-05-06T10:13:25.770Z,37.59
2023-05-06T10:15:52.286Z,37.78
2023-05-06T10:18:18.744Z,37.63
2023-05-06T10:20:45.382Z,38.04
2023-05-06T10:23:11.794Z,38.01
2023-05-06T10:25:38.285Z,37.95
2023-05-06T10:28:06.164Z,37.48
2023-05-06T10:30:37.109Z,37.62
2023-05-06T10:33:03.584Z,37.68
2023-05-06T10:35:30.066Z,38.05
2023-05-06T10:37:56.540Z,37.51
2023-05-06T10:40:22.987Z,37.69
2023-05-06T10:42:49.508Z,37.49
2023-05-06T10:45:15.952Z,37.70
2023-05-06T10:47:42.413Z,37.50
2023-05-06T10:50:08.870Z,36.63
2023-05-06T10:52:35.280Z,36.91
2023-05-06T10:55:01.874Z,36.95
2023-05-06T10:57:28.394Z,36.63
2023-05-06T10:59:54.872Z,36.75
2023-05-06T11:02:21.456Z,36.40
2023-05-06T11:04:48.094Z,35.51
2023-05-06T11:07:14.531Z,35.69
2023-05-06T11:09:41.021Z,35.88
2023-05-06T11:12:07.508Z,35.43
2023-05-06T11:14:33.945Z,36.28
2023-05-06T11:17:00.430Z,35.44
2023-05-06T11:19:26.840Z,35.51
2023-05-06T11:21:53.484Z,35.57
2023-05-06T11:24:19.905Z,35.58
2023-05-06T11:26:46.493Z,35.10
2023-05-06T11:29:13.504Z,34.99
2023-05-06T11:31:39.994Z,35.73
2023-05-06T11:34:06.400Z,35.58
2023-05-06T11:36:32.917Z,34.80
2023-05-06T11:38:59.649Z,34.47
2023-05-06T11:41:26.196Z,34.07
2023-05-06T11:43:52.702Z,34.26
2023-05-06T11:46:19.396Z,34.22
2023-05-06T11:48:45.985Z,34.23
2023-05-06T11:51:12.558Z,34.43
2023-05-06T11:53:38.970Z,35.08
2023-05-06T11:56:05.384Z,34.71
2023-05-06T11:58:31.776Z,34.40
2023-05-06T12:01:00.901Z,34.50
2023-05-06T12:03:27.529Z,34.25
2023-05-06T12:05:54.140Z,34.38
2023-05-06T12:08:27.354Z,34.62
2023-05-06T12:10:54.548Z,34.98
2023-05-06T12:13:20.952Z,34.75
2023-05-06T12:15:47.481Z,34.40
2023-05-06T12:18:13.958Z,34.42
2023-05-06T12:20:40.383Z,34.42
2023-05-06T12:23:06.800Z,35.26
2023-05-06T12:25:33.171Z,34.65
2023-05-06T12:27:59.619Z,34.83
2023-05-06T12:30:26.223Z,35.03
2023-05-06T12:32:52.758Z,34.68
2023-05-06T12:35:19.214Z,34.46
2023-05-06T12:37:45.660Z,34.60
2023-05-06T12:40:12.409Z,34.85
2023-05-06T12:42:39.316Z,34.92
2023-05-06T12:45:05.769Z,35.13
2023-05-06T12:47:32.264Z,35.08
2023-05-06T12:49:59.168Z,35.22
2023-05-06T12:52:25.913Z,35.50
2023-05-06T12:54:52.345Z,35.20
2023-05-06T12:57:18.777Z,35.25
2023-05-06T12:59:45.196Z,35.38
2023-05-06T13:02:11.633Z,34.61
2023-05-06T13:04:38.198Z,34.57
2023-05-06T13:07:04.652Z,34.12
2023-05-06T13:09:31.304Z,34.11
2023-05-06T13:11:57.686Z,33.92
2023-05-06T13:14:24.144Z,34.30
2023-05-06T13:16:50.584Z,34.02
2023-05-06T13:21:46.367Z,33.72
2023-05-06T13:24:12.847Z,34.08
2023-05-06T13:26:39.278Z,33.25
2023-05-06T13:29:05.692Z,33.75
2023-05-06T13:31:32.140Z,33.27
2023-05-06T13:33:58.699Z,33.00
2023-05-06T13:36:25.061Z,32.75
2023-05-06T13:38:51.426Z,32.50
2023-05-06T13:41:17.833Z,32.49
2023-05-06T13:43:44.501Z,32.29
2023-05-06T13:46:11.013Z,31.89
2023-05-06T13:48:37.438Z,32.17
2023-05-06T13:51:03.841Z,32.03
2023-05-06T13:53:30.305Z,31.76
2023-05-06T13:55:56.877Z,31.83
2023-05-06T13:58:23.440Z,31.92
2023-05-06T14:00:49.979Z,32.35
2023-05-06T14:03:16.405Z,32.68
2023-05-06T14:05:44.758Z,32.93
2023-05-06T14:08:11.261Z,32.83
2023-05-06T14:10:37.748Z,33.35
2023-05-06T14:13:06.774Z,32.71
2023-05-06T14:15:33.636Z,33.88
2023-05-06T14:18:00.196Z,34.84
2023-05-06T14:20:26.660Z,34.14
2023-05-06T14:22:53.206Z,35.23
2023-05-06T14:25:19.842Z,34.24
2023-05-06T14:27:46.264Z,33.72
2023-05-06T14:30:13.162Z,32.42
2023-05-06T14:32:39.699Z,31.84
2023-05-06T14:35:06.170Z,29.32
2023-05-06T14:37:32.645Z,28.28
2023-05-06T14:39:59.065Z,26.80
2023-05-06T14:42:25.584Z,25.97
2023-05-06T14:44:52.042Z,25.14
2023-05-06T14:47:18.451Z,25.18
2023-05-06T14:49:44.896Z,24.59
2023-05-06T14:52:11.336Z,23.45
2023-05-06T14:54:37.773Z,23.36
2023-05-06T14:57:04.236Z,22.67
2023-05-06T14:59:30.784Z,22.54
2023-05-06T15:01:57.212Z,22.32
2023-05-06T15:04:23.671Z,21.81
2023-05-06T15:06:50.259Z,21.75
2023-05-06T15:09:16.636Z,21.23
2023-05-06T15:11:43.078Z,21.08
2023-05-06T15:14:09.573Z,20.52
2023-05-06T15:16:36.083Z,19.89
2023-05-06T15:19:02.598Z,19.29
2023-05-06T15:21:29.033Z,19.08
2023-05-06T15:23:55.506Z,18.31
2023-05-06T15:26:22.015Z,18.54
2023-05-06T15:28:48.573Z,18.97
2023-05-06T15:31:15.037Z,18.66
2023-05-06T15:33:41.609Z,18.15
2023-05-06T15:36:08.036Z,18.03
2023-05-06T15:38:34.504Z,18.64
2023-05-06T15:41:00.952Z,18.22
2023-05-06T15:43:36.414Z,18.44
2023-05-06T15:46:05.115Z,18.25
2023-05-06T15:48:34.758Z,17.85
2023-05-06T15:51:01.170Z,18.36
2023-05-06T15:53:27.809Z,18.54
2023-05-06T15:55:57.192Z,18.86
2023-05-06T15:58:30.718Z,17.47
2023-05-06T16:00:57.293Z,17.74
2023-05-06T16:03:23.949Z,17.72
2023-05-06T16:05:50.622Z,17.76
2023-05-06T16:08:17.171Z,19.05
2023-05-06T16:10:43.575Z,20.81
2023-05-06T16:13:11.223Z,22.56
2023-05-06T16:15:37.666Z,22.83
2023-05-06T16:18:04.209Z,23.22
2023-05-06T16:20:30.620Z,22.53
2023-05-06T16:22:57.358Z,23.06
2023-05-06T16:25:23.827Z,25.44
2023-05-06T16:27:50.273Z,27.03
2023-05-06T16:30:16.764Z,28.67
2023-05-06T16:32:43.324Z,29.09
2023-05-06T16:35:09.804Z,29.29
2023-05-06T16:37:36.198Z,29.90
2023-05-06T16:40:02.947Z,30.27
2023-05-06T16:42:29.424Z,30.98
2023-05-06T16:44:55.847Z,31.57
2023-05-06T16:47:22.502Z,31.94
2023-05-06T16:49:49.062Z,31.83
2023-05-06T16:52:15.664Z,32.11
2023-05-06T16:54:42.220Z,32.62
2023-05-06T16:57:11.693Z,32.75
2023-05-06T16:59:38.134Z,33.26
2023-05-06T17:02:04.819Z,34.07
2023-05-06T17:04:31.582Z,33.80
2023-05-06T17:06:58.145Z,34.43
2023-05-06T17:09:27.775Z,34.53
2023-05-06T17:11:54.214Z,35.26
2023-05-06T17:14:20.637Z,35.77
2023-05-06T17:16:49.074Z,36.28
2023-05-06T17:19:15.507Z,35.66
2023-05-06T17:21:41.948Z,35.48
2023-05-06T17:24:08.401Z,35.84
2023-05-06T17:26:35.074Z,36.17
2023-05-06T17:29:01.485Z,36.06
2023-05-06T17:31:28.154Z,36.01
2023-05-06T17:33:54.756Z,35.62
2023-05-06T17:36:21.181Z,35.59
2023-05-06T17:38:48.761Z,35.77
2023-05-06T17:41:15.299Z,35.64
2023-05-06T17:43:41.731Z,35.67
2023-05-06T17:46:08.249Z,35.69
2023-05-06T17:48:41.801Z,36.13
2023-05-06T17:51:08.285Z,36.32
2023-05-06T17:53:36.256Z,36.22
2023-05-06T17:56:02.803Z,36.90
2023-05-06T17:58:29.271Z,37.07
2023-05-06T18:00:55.904Z,37.66
2023-05-06T18:03:22.351Z,38.05
2023-05-06T18:05:48.894Z,38.43
2023-05-06T18:08:15.329Z,38.69
2023-05-06T18:10:41.979Z,38.92
2023-05-06T18:13:08.442Z,38.83
2023-05-06T18:15:35.061Z,38.96
2023-05-06T18:18:01.515Z,39.04
2023-05-06T18:20:27.955Z,39.40
2023-05-06T18:22:54.577Z,39.31
2023-05-06T18:25:21.138Z,39.55
2023-05-06T18:27:47.653Z,39.89
2023-05-06T18:30:14.080Z,40.30
2023-05-06T18:32:40.700Z,40.18
2023-05-06T18:35:07.367Z,40.22
2023-05-06T18:37:33.837Z,40.13
2023-05-06T18:40:01.481Z,40.55
2023-05-06T18:42:27.940Z,40.57
2023-05-06T18:44:54.584Z,40.88
2023-05-06T18:47:21.011Z,41.11
2023-05-06T18:49:47.625Z,41.49
2023-05-06T18:52:14.067Z,41.12
2023-05-06T18:54:42.679Z,41.48
2023-05-06T18:57:09.184Z,41.93
2023-05-06T18:59:35.681Z,42.04
2023-05-06T19:02:03.766Z,42.15
2023-05-06T19:04:30.641Z,41.96
2023-05-06T19:06:57.284Z,42.55
2023-05-06T19:09:23.835Z,42.55
2023-05-06T19:11:50.277Z,42.37
2023-05-06T19:14:16.776Z,42.72
2023-05-06T19:16:43.242Z,42.43
2023-05-06T19:19:09.799Z,43.19
2023-05-06T19:21:36.203Z,43.42
2023-05-06T19:24:02.749Z,42.97
2023-05-06T19:26:29.272Z,43.28
2023-05-06T19:28:55.630Z,43.17
2023-05-06T19:31:22.147Z,43.61
2023-05-06T19:33:48.757Z,43.52
2023-05-06T19:36:15.352Z,43.45
2023-05-06T19:38:41.755Z,43.64
2023-05-06T19:41:08.192Z,43.95
2023-05-06T19:43:34.589Z,44.25
2023-05-06T19:46:01.144Z,44.39
2023-05-06T19:48:27.630Z,44.72
2023-05-06T19:50:54.154Z,44.82
2023-05-06T19:53:20.606Z,44.99
2023-05-06T19:55:46.986Z,45.31
2023-05-06T19:58:13.449Z,45.13
2023-05-06T20:00:39.917Z,45.02
2023-05-06T20:03:06.382Z,45.08
2023-05-06T20:05:32.984Z,45.21
2023-05-06T20:07:59.414Z,45.73
2023-05-06T20:10:25.808Z,46.28
2023-05-06T20:12:52.240Z,46.16
2023-05-06T20:15:18.791Z,46.52
2023-05-06T20:17:45.325Z,46.56
2023-05-06T20:20:11.779Z,45.73
2023-05-06T20:22:38.447Z,45.61
2023-05-06T20:25:04.861Z,45.58
2023-05-06T20:27:31.318Z,45.97
2023-05-06T20:29:57.771Z,46.62
2023-05-06T20:32:25.581Z,46.80
2023-05-06T20:34:52.023Z,46.76
2023-05-06T20:37:18.696Z,46.89
2023-05-06T20:39:45.141Z,46.73
2023-05-06T20:42:11.711Z,46.75
2023-05-06T20:44:38.124Z,46.57
2023-05-06T20:47:04.528Z,45.77
2023-05-06T20:49:30.962Z,45.71
2023-05-06T20:51:57.344Z,45.97
2023-05-06T20:54:23.850Z,46.46
2023-05-06T20:56:50.233Z,47.37
2023-05-06T20:59:16.651Z,47.82
2023-05-06T21:01:43.150Z,47.87
2023-05-06T21:04:09.673Z,47.36
2023-05-06T21:06:36.177Z,47.32
2023-05-06T21:09:02.667Z,46.92
2023-05-06T21:11:29.124Z,46.78
2023-05-06T21:13:55.604Z,46.86
2023-05-06T21:16:22.156Z,47.05
2023-05-06T21:18:48.853Z,47.21
2023-05-06T21:21:15.457Z,48.35
2023-05-06T21:23:41.863Z,48.37
2023-05-06T21:26:08.398Z,48.75
2023-05-06T21:28:34.866Z,49.15
2023-05-06T21:31:01.554Z,49.75
2023-05-06T21:33:27.998Z,49.77
2023-05-06T21:35:54.416Z,49.86
2023-05-06T21:38:20.843Z,49.89
2023-05-06T21:40:47.291Z,49.83
2023-05-06T21:43:14.041Z,49.18
2023-05-06T21:45:40.440Z,49.20
2023-05-06T21:48:07.003Z,49.23
2023-05-06T21:50:33.452Z,48.69
2023-05-06T21:52:59.902Z,48.59
2023-05-06T21:55:26.319Z,48.43
2023-05-06T21:57:52.725Z,48.17
2023-05-06T22:00:19.177Z,48.17
2023-05-06T22:02:45.830Z,48.46
2023-05-06T22:05:12.486Z,48.44
2023-05-06T22:07:39.085Z,48.18
2023-05-06T22:10:05.525Z,48.33
2023-05-06T22:12:31.902Z,48.84
2023-05-06T22:14:58.309Z,50.09
2023-05-06T22:17:24.830Z,50.45
2023-05-06T22:19:51.282Z,50.66
2023-05-06T22:22:18.189Z,50.51
2023-05-06T22:24:44.604Z,49.54
2023-05-06T22:27:11.013Z,49.40
2023-05-06T22:29:37.420Z,48.92
2023-05-06T22:34:30.359Z,50.12
2023-05-06T22:36:58.095Z,50.46
2023-05-06T22:39:25.421Z,50.46
2023-05-06T22:41:51.783Z,50.31
2023-05-06T22:44:18.229Z,50.52
2023-05-06T22:46:46.840Z,50.18
2023-05-06T22:49:13.382Z,50.38
2023-05-06T22:51:39.765Z,49.78
2023-05-06T22:54:06.134Z,49.92
2023-05-06T22:56:32.505Z,49.72
2023-05-06T22:58:58.938Z,50.20
2023-05-06T23:01:25.420Z,50.97
2023-05-06T23:03:51.904Z,52.00
2023-05-06T23:06:18.377Z,52.09
2023-05-06T23:08:44.772Z,52.27
2023-05-06T23:11:11.307Z,52.46
2023-05-06T23:13:37.732Z,51.87
2023-05-06T23:16:04.421Z,51.78
2023-05-06T23:18:30.801Z,51.19
2023-05-06T23:20:57.245Z,51.03
2023-05-06T23:23:23.616Z,50.98
2023-05-06T23:25:50.058Z,50.76
2023-05-06T23:28:16.455Z,51.07
2023-05-06T23:30:42.951Z,50.74
2023-05-06T23:33:09.468Z,50.93
2023-05-06T23:35:35.908Z,50.79
2023-05-06T23:38:02.326Z,51.18
2023-05-06T23:40:28.755Z,51.27
2023-05-06T23:42:55.137Z,51.50
2023-05-06T23:45:21.504Z,51.32
2023-05-06T23:47:47.946Z,51.86
2023-05-06T23:50:14.741Z,52.36
2023-05-06T23:52:41.326Z,52.52
2023-05-06T23:55:07.774Z,51.58
2023-05-06T23:57:34.181Z,51.79
